sensor_id;sensor_type;location;lat;lon;timestamp;P1;durP1;ratioP1;P2;durP2;ratioP2
44746;SDS011;30472;49.490;10.972;2023-09-12T00:01:09;15.50;;;13.90;;
44746;SDS011;30472;49.490;10.972;2023-09-12T00:03:35;14.60;;;13.20;;
44746;SDS011;30472;49.490;10.972;2023-09-12T00:06:01;18.07;;;14.40;;
44746;SDS011;30472;49.490;10.972;2023-09-12T00:08:28;15.40;;;13.80;;
44746;SDS011;30472;49.490;10.972;2023-09-12T00:11:01;16.23;;;14.13;;
44746;SDS011;30472;49.490;10.972;2023-09-12T00:13:28;16.53;;;14.80;;
44746;SDS011;30472;49.490;10.972;2023-09-12T00:15:54;15.30;;;13.73;;
44746;SDS011;30472;49.490;10.972;2023-09-12T00:18:19;16.57;;;14.37;;
44746;SDS011;30472;49.490;10.972;2023-09-12T00:20:45;17.87;;;14.83;;
44746;SDS011;30472;49.490;10.972;2023-09-12T00:23:10;18.43;;;16.53;;
44746;SDS011;30472;49.490;10.972;2023-09-12T00:25:36;17.57;;;15.10;;
44746;SDS011;30472;49.490;10.972;2023-09-12T00:28:02;16.10;;;14.40;;
44746;SDS011;30472;49.490;10.972;2023-09-12T00:30:27;17.13;;;15.30;;
44746;SDS011;30472;49.490;10.972;2023-09-12T00:32:53;20.47;;;16.87;;
44746;SDS011;30472;49.490;10.972;2023-09-12T00:35:18;18.30;;;15.83;;
44746;SDS011;30472;49.490;10.972;2023-09-12T00:37:44;18.93;;;17.03;;
44746;SDS011;30472;49.490;10.972;2023-09-12T00:40:09;19.00;;;17.00;;
44746;SDS011;30472;49.490;10.972;2023-09-12T00:42:35;18.80;;;16.80;;
44746;SDS011;30472;49.490;10.972;2023-09-12T00:45:01;19.20;;;17.23;;
44746;SDS011;30472;49.490;10.972;2023-09-12T00:47:26;21.00;;;17.43;;
44746;SDS011;30472;49.490;10.972;2023-09-12T00:49:53;23.13;;;18.27;;
44746;SDS011;30472;49.490;10.972;2023-09-12T00:52:21;20.47;;;17.50;;
44746;SDS011;30472;49.490;10.972;2023-09-12T00:54:49;19.00;;;16.80;;
44746;SDS011;30472;49.490;10.972;2023-09-12T00:57:15;17.43;;;15.60;;
44746;SDS011;30472;49.490;10.972;2023-09-12T00:59:40;20.63;;;18.43;;
44746;SDS011;30472;49.490;10.972;2023-09-12T01:02:06;19.60;;;16.77;;
44746;SDS011;30472;49.490;10.972;2023-09-12T01:04:32;18.50;;;16.50;;
44746;SDS011;30472;49.490;10.972;2023-09-12T01:06:58;22.07;;;18.10;;
44746;SDS011;30472;49.490;10.972;2023-09-12T01:09:24;22.07;;;19.93;;
44746;SDS011;30472;49.490;10.972;2023-09-12T01:11:49;22.53;;;19.17;;
44746;SDS011;30472;49.490;10.972;2023-09-12T01:14:15;19.40;;;17.43;;
44746;SDS011;30472;49.490;10.972;2023-09-12T01:16:41;18.60;;;16.80;;
44746;SDS011;30472;49.490;10.972;2023-09-12T01:19:06;21.40;;;18.33;;
44746;SDS011;30472;49.490;10.972;2023-09-12T01:21:46;21.07;;;17.67;;
44746;SDS011;30472;49.490;10.972;2023-09-12T01:27:38;19.63;;;17.53;;
44746;SDS011;30472;49.490;10.972;2023-09-12T01:30:09;16.83;;;15.20;;
44746;SDS011;30472;49.490;10.972;2023-09-12T01:32:36;20.70;;;18.27;;
44746;SDS011;30472;49.490;10.972;2023-09-12T01:35:04;19.50;;;17.43;;
44746;SDS011;30472;49.490;10.972;2023-09-12T01:37:33;19.63;;;17.53;;
44746;SDS011;30472;49.490;10.972;2023-09-12T01:39:58;19.10;;;17.03;;
44746;SDS011;30472;49.490;10.972;2023-09-12T01:42:24;21.17;;;17.23;;
44746;SDS011;30472;49.490;10.972;2023-09-12T01:44:55;19.47;;;17.03;;
44746;SDS011;30472;49.490;10.972;2023-09-12T01:47:21;22.17;;;19.77;;
44746;SDS011;30472;49.490;10.972;2023-09-12T01:49:50;23.30;;;20.90;;
44746;SDS011;30472;49.490;10.972;2023-09-12T01:52:21;22.10;;;19.90;;
44746;SDS011;30472;49.490;10.972;2023-09-12T01:54:47;23.50;;;21.00;;
44746;SDS011;30472;49.490;10.972;2023-09-12T01:57:14;23.37;;;20.93;;
44746;SDS011;30472;49.490;10.972;2023-09-12T01:59:40;24.47;;;22.03;;
44746;SDS011;30472;49.490;10.972;2023-09-12T02:02:06;23.27;;;20.77;;
44746;SDS011;30472;49.490;10.972;2023-09-12T02:04:32;22.63;;;20.17;;
44746;SDS011;30472;49.490;10.972;2023-09-12T02:06:58;22.33;;;18.80;;
44746;SDS011;30472;49.490;10.972;2023-09-12T02:09:23;20.90;;;17.80;;
44746;SDS011;30472;49.490;10.972;2023-09-12T02:11:50;20.63;;;18.43;;
44746;SDS011;30472;49.490;10.972;2023-09-12T02:14:16;19.30;;;17.33;;
44746;SDS011;30472;49.490;10.972;2023-09-12T02:16:43;21.90;;;17.53;;
44746;SDS011;30472;49.490;10.972;2023-09-12T02:19:08;19.93;;;18.00;;
44746;SDS011;30472;49.490;10.972;2023-09-12T02:21:34;21.67;;;18.57;;
44746;SDS011;30472;49.490;10.972;2023-09-12T02:23:59;22.47;;;20.10;;
44746;SDS011;30472;49.490;10.972;2023-09-12T02:26:25;21.80;;;19.70;;
44746;SDS011;30472;49.490;10.972;2023-09-12T02:28:51;21.73;;;19.63;;
44746;SDS011;30472;49.490;10.972;2023-09-12T02:31:16;25.37;;;20.57;;
44746;SDS011;30472;49.490;10.972;2023-09-12T02:33:42;25.10;;;20.50;;
44746;SDS011;30472;49.490;10.972;2023-09-12T02:36:07;23.23;;;19.40;;
44746;SDS011;30472;49.490;10.972;2023-09-12T02:38:33;22.77;;;20.33;;
44746;SDS011;30472;49.490;10.972;2023-09-12T02:40:59;22.87;;;20.30;;
44746;SDS011;30472;49.490;10.972;2023-09-12T02:43:24;23.43;;;20.73;;
44746;SDS011;30472;49.490;10.972;2023-09-12T02:45:50;25.17;;;21.13;;
44746;SDS011;30472;49.490;10.972;2023-09-12T02:48:16;22.90;;;20.57;;
44746;SDS011;30472;49.490;10.972;2023-09-12T02:50:41;22.53;;;20.23;;
44746;SDS011;30472;49.490;10.972;2023-09-12T02:53:07;24.67;;;22.10;;
44746;SDS011;30472;49.490;10.972;2023-09-12T02:55:32;23.27;;;20.40;;
44746;SDS011;30472;49.490;10.972;2023-09-12T02:57:58;22.80;;;20.43;;
44746;SDS011;30472;49.490;10.972;2023-09-12T03:00:24;23.53;;;20.37;;
44746;SDS011;30472;49.490;10.972;2023-09-12T03:02:49;21.37;;;19.17;;
44746;SDS011;30472;49.490;10.972;2023-09-12T03:05:15;23.30;;;20.87;;
44746;SDS011;30472;49.490;10.972;2023-09-12T03:07:41;22.20;;;18.87;;
44746;SDS011;30472;49.490;10.972;2023-09-12T03:10:06;22.10;;;19.33;;
44746;SDS011;30472;49.490;10.972;2023-09-12T03:12:32;20.77;;;18.77;;
44746;SDS011;30472;49.490;10.972;2023-09-12T03:15:00;18.13;;;16.33;;
44746;SDS011;30472;49.490;10.972;2023-09-12T03:17:27;20.47;;;17.63;;
44746;SDS011;30472;49.490;10.972;2023-09-12T03:19:53;19.00;;;17.17;;
44746;SDS011;30472;49.490;10.972;2023-09-12T03:22:19;18.63;;;16.63;;
44746;SDS011;30472;49.490;10.972;2023-09-12T03:24:44;19.87;;;17.53;;
44746;SDS011;30472;49.490;10.972;2023-09-12T03:27:10;20.43;;;17.53;;
44746;SDS011;30472;49.490;10.972;2023-09-12T03:29:35;19.87;;;17.90;;
44746;SDS011;30472;49.490;10.972;2023-09-12T03:32:01;19.83;;;17.47;;
44746;SDS011;30472;49.490;10.972;2023-09-12T03:34:26;21.03;;;17.97;;
44746;SDS011;30472;49.490;10.972;2023-09-12T03:36:52;20.07;;;17.97;;
44746;SDS011;30472;49.490;10.972;2023-09-12T03:39:17;24.93;;;19.30;;
44746;SDS011;30472;49.490;10.972;2023-09-12T03:41:43;21.40;;;19.23;;
44746;SDS011;30472;49.490;10.972;2023-09-12T03:44:08;27.77;;;21.40;;
44746;SDS011;30472;49.490;10.972;2023-09-12T03:46:34;22.80;;;20.50;;
44746;SDS011;30472;49.490;10.972;2023-09-12T03:49:00;24.27;;;21.37;;
44746;SDS011;30472;49.490;10.972;2023-09-12T03:51:25;21.37;;;19.13;;
44746;SDS011;30472;49.490;10.972;2023-09-12T03:53:51;20.10;;;18.00;;
44746;SDS011;30472;49.490;10.972;2023-09-12T03:56:16;20.37;;;17.87;;
44746;SDS011;30472;49.490;10.972;2023-09-12T03:58:44;18.83;;;16.53;;
44746;SDS011;30472;49.490;10.972;2023-09-12T04:01:10;19.47;;;17.17;;
44746;SDS011;30472;49.490;10.972;2023-09-12T04:03:36;21.27;;;18.87;;
44746;SDS011;30472;49.490;10.972;2023-09-12T04:06:03;20.47;;;17.90;;
44746;SDS011;30472;49.490;10.972;2023-09-12T04:08:29;23.63;;;17.43;;
44746;SDS011;30472;49.490;10.972;2023-09-12T04:10:54;18.47;;;16.67;;
44746;SDS011;30472;49.490;10.972;2023-09-12T04:13:20;18.33;;;16.50;;
44746;SDS011;30472;49.490;10.972;2023-09-12T04:15:45;20.87;;;17.10;;
44746;SDS011;30472;49.490;10.972;2023-09-12T04:18:11;20.67;;;18.43;;
44746;SDS011;30472;49.490;10.972;2023-09-12T04:20:36;19.27;;;17.27;;
44746;SDS011;30472;49.490;10.972;2023-09-12T04:23:02;19.33;;;17.27;;
44746;SDS011;30472;49.490;10.972;2023-09-12T04:25:28;21.07;;;18.33;;
44746;SDS011;30472;49.490;10.972;2023-09-12T04:27:57;24.27;;;19.60;;
44746;SDS011;30472;49.490;10.972;2023-09-12T04:30:23;21.00;;;17.83;;
44746;SDS011;30472;49.490;10.972;2023-09-12T04:32:48;20.40;;;18.33;;
44746;SDS011;30472;49.490;10.972;2023-09-12T04:35:14;21.73;;;19.40;;
44746;SDS011;30472;49.490;10.972;2023-09-12T04:37:39;19.93;;;16.97;;
44746;SDS011;30472;49.490;10.972;2023-09-12T04:40:06;21.43;;;17.63;;
44746;SDS011;30472;49.490;10.972;2023-09-12T04:42:32;20.17;;;16.40;;
44746;SDS011;30472;49.490;10.972;2023-09-12T04:44:58;19.87;;;17.70;;
44746;SDS011;30472;49.490;10.972;2023-09-12T04:47:23;20.17;;;17.13;;
44746;SDS011;30472;49.490;10.972;2023-09-12T04:49:49;23.73;;;18.50;;
44746;SDS011;30472;49.490;10.972;2023-09-12T04:52:14;22.03;;;18.23;;
44746;SDS011;30472;49.490;10.972;2023-09-12T04:54:40;23.73;;;17.57;;
44746;SDS011;30472;49.490;10.972;2023-09-12T04:57:07;19.53;;;17.43;;
44746;SDS011;30472;49.490;10.972;2023-09-12T04:59:32;22.37;;;18.13;;
44746;SDS011;30472;49.490;10.972;2023-09-12T05:01:58;19.73;;;17.20;;
44746;SDS011;30472;49.490;10.972;2023-09-12T05:04:24;19.93;;;16.67;;
44746;SDS011;30472;49.490;10.972;2023-09-12T05:06:49;19.40;;;16.10;;
44746;SDS011;30472;49.490;10.972;2023-09-12T05:09:15;18.97;;;17.17;;
44746;SDS011;30472;49.490;10.972;2023-09-12T05:11:42;21.97;;;18.43;;
44746;SDS011;30472;49.490;10.972;2023-09-12T05:14:09;20.90;;;18.20;;
44746;SDS011;30472;49.490;10.972;2023-09-12T05:16:34;21.60;;;18.00;;
44746;SDS011;30472;49.490;10.972;2023-09-12T05:19:00;23.33;;;18.20;;
44746;SDS011;30472;49.490;10.972;2023-09-12T05:21:25;20.67;;;18.47;;
44746;SDS011;30472;49.490;10.972;2023-09-12T05:23:52;21.07;;;18.83;;
44746;SDS011;30472;49.490;10.972;2023-09-12T05:26:18;19.03;;;16.73;;
44746;SDS011;30472;49.490;10.972;2023-09-12T05:28:44;18.13;;;16.23;;
44746;SDS011;30472;49.490;10.972;2023-09-12T05:31:10;18.60;;;16.30;;
44746;SDS011;30472;49.490;10.972;2023-09-12T05:33:36;21.50;;;17.17;;
44746;SDS011;30472;49.490;10.972;2023-09-12T05:36:01;22.13;;;16.70;;
44746;SDS011;30472;49.490;10.972;2023-09-12T05:38:27;18.87;;;15.53;;
44746;SDS011;30472;49.490;10.972;2023-09-12T05:40:53;20.77;;;14.63;;
44746;SDS011;30472;49.490;10.972;2023-09-12T05:43:20;15.47;;;13.93;;
44746;SDS011;30472;49.490;10.972;2023-09-12T05:45:46;18.60;;;14.73;;
44746;SDS011;30472;49.490;10.972;2023-09-12T05:48:11;25.20;;;15.37;;
44746;SDS011;30472;49.490;10.972;2023-09-12T05:50:37;19.63;;;15.33;;
44746;SDS011;30472;49.490;10.972;2023-09-12T05:53:04;16.03;;;13.90;;
44746;SDS011;30472;49.490;10.972;2023-09-12T05:55:29;18.90;;;15.13;;
44746;SDS011;30472;49.490;10.972;2023-09-12T05:57:55;18.87;;;15.30;;
44746;SDS011;30472;49.490;10.972;2023-09-12T06:00:21;18.17;;;14.33;;
44746;SDS011;30472;49.490;10.972;2023-09-12T06:02:47;20.97;;;14.10;;
44746;SDS011;30472;49.490;10.972;2023-09-12T06:05:13;22.23;;;15.33;;
44746;SDS011;30472;49.490;10.972;2023-09-12T06:07:40;17.47;;;12.93;;
44746;SDS011;30472;49.490;10.972;2023-09-12T06:10:06;19.87;;;14.33;;
44746;SDS011;30472;49.490;10.972;2023-09-12T06:12:33;20.37;;;14.10;;
44746;SDS011;30472;49.490;10.972;2023-09-12T06:15:01;17.10;;;14.67;;
44746;SDS011;30472;49.490;10.972;2023-09-12T06:17:27;18.40;;;14.00;;
44746;SDS011;30472;49.490;10.972;2023-09-12T06:19:54;19.27;;;13.17;;
44746;SDS011;30472;49.490;10.972;2023-09-12T06:22:19;23.77;;;14.20;;
44746;SDS011;30472;49.490;10.972;2023-09-12T06:24:45;15.70;;;14.00;;
44746;SDS011;30472;49.490;10.972;2023-09-12T06:27:11;20.17;;;13.17;;
44746;SDS011;30472;49.490;10.972;2023-09-12T06:29:43;18.63;;;14.30;;
44746;SDS011;30472;49.490;10.972;2023-09-12T06:32:13;16.80;;;13.90;;
44746;SDS011;30472;49.490;10.972;2023-09-12T06:34:39;18.10;;;14.40;;
44746;SDS011;30472;49.490;10.972;2023-09-12T06:37:04;20.43;;;14.57;;
44746;SDS011;30472;49.490;10.972;2023-09-12T06:39:30;19.13;;;14.53;;
44746;SDS011;30472;49.490;10.972;2023-09-12T06:41:55;17.93;;;14.13;;
44746;SDS011;30472;49.490;10.972;2023-09-12T06:44:21;17.03;;;14.17;;
44746;SDS011;30472;49.490;10.972;2023-09-12T06:46:47;15.47;;;13.17;;
44746;SDS011;30472;49.490;10.972;2023-09-12T06:49:12;22.87;;;13.80;;
44746;SDS011;30472;49.490;10.972;2023-09-12T06:51:38;21.90;;;14.73;;
44746;SDS011;30472;49.490;10.972;2023-09-12T06:54:03;16.03;;;13.27;;
44746;SDS011;30472;49.490;10.972;2023-09-12T06:56:29;21.63;;;13.50;;
44746;SDS011;30472;49.490;10.972;2023-09-12T06:58:55;22.30;;;13.90;;
44746;SDS011;30472;49.490;10.972;2023-09-12T07:01:20;20.60;;;14.63;;
44746;SDS011;30472;49.490;10.972;2023-09-12T07:03:46;21.07;;;13.30;;
44746;SDS011;30472;49.490;10.972;2023-09-12T07:06:13;19.20;;;12.43;;
44746;SDS011;30472;49.490;10.972;2023-09-12T07:08:39;15.17;;;11.43;;
44746;SDS011;30472;49.490;10.972;2023-09-12T07:11:04;17.27;;;11.53;;
44746;SDS011;30472;49.490;10.972;2023-09-12T07:13:34;14.32;;;11.30;;
44746;SDS011;30472;49.490;10.972;2023-09-12T07:15:59;16.50;;;10.55;;
44746;SDS011;30472;49.490;10.972;2023-09-12T07:18:28;12.40;;;10.32;;
44746;SDS011;30472;49.490;10.972;2023-09-12T07:21:02;12.93;;;10.13;;
44746;SDS011;30472;49.490;10.972;2023-09-12T07:23:29;15.10;;;9.88;;
44746;SDS011;30472;49.490;10.972;2023-09-12T07:25:55;20.15;;;9.73;;
44746;SDS011;30472;49.490;10.972;2023-09-12T07:28:25;14.10;;;9.30;;
44746;SDS011;30472;49.490;10.972;2023-09-12T07:30:51;15.35;;;9.48;;
44746;SDS011;30472;49.490;10.972;2023-09-12T07:33:17;12.32;;;9.80;;
44746;SDS011;30472;49.490;10.972;2023-09-12T07:35:43;16.13;;;9.70;;
44746;SDS011;30472;49.490;10.972;2023-09-12T07:38:11;13.18;;;8.95;;
44746;SDS011;30472;49.490;10.972;2023-09-12T07:40:38;16.38;;;9.45;;
44746;SDS011;30472;49.490;10.972;2023-09-12T07:43:03;15.13;;;9.07;;
44746;SDS011;30472;49.490;10.972;2023-09-12T07:45:29;17.48;;;10.05;;
44746;SDS011;30472;49.490;10.972;2023-09-12T07:47:56;19.45;;;9.57;;
44746;SDS011;30472;49.490;10.972;2023-09-12T07:50:21;14.77;;;9.45;;
44746;SDS011;30472;49.490;10.972;2023-09-12T07:52:48;19.15;;;9.40;;
44746;SDS011;30472;49.490;10.972;2023-09-12T07:55:14;15.13;;;9.57;;
44746;SDS011;30472;49.490;10.972;2023-09-12T07:57:39;13.82;;;10.18;;
44746;SDS011;30472;49.490;10.972;2023-09-12T08:00:05;17.60;;;9.90;;
44746;SDS011;30472;49.490;10.972;2023-09-12T08:02:34;12.90;;;9.45;;
44746;SDS011;30472;49.490;10.972;2023-09-12T08:05:00;15.57;;;10.63;;
44746;SDS011;30472;49.490;10.972;2023-09-12T08:07:25;18.02;;;9.50;;
44746;SDS011;30472;49.490;10.972;2023-09-12T08:09:53;11.15;;;10.00;;
44746;SDS011;30472;49.490;10.972;2023-09-12T08:12:21;12.77;;;10.25;;
44746;SDS011;30472;49.490;10.972;2023-09-12T08:14:48;10.95;;;9.40;;
44746;SDS011;30472;49.490;10.972;2023-09-12T08:17:14;14.25;;;9.40;;
44746;SDS011;30472;49.490;10.972;2023-09-12T08:19:40;17.45;;;9.88;;
44746;SDS011;30472;49.490;10.972;2023-09-12T08:22:07;11.88;;;10.27;;
44746;SDS011;30472;49.490;10.972;2023-09-12T08:24:34;15.18;;;10.90;;
44746;SDS011;30472;49.490;10.972;2023-09-12T08:27:00;18.00;;;10.95;;
44746;SDS011;30472;49.490;10.972;2023-09-12T08:29:29;17.60;;;10.90;;
44746;SDS011;30472;49.490;10.972;2023-09-12T08:31:57;14.50;;;10.45;;
44746;SDS011;30472;49.490;10.972;2023-09-12T08:34:22;11.35;;;9.95;;
44746;SDS011;30472;49.490;10.972;2023-09-12T08:36:48;12.38;;;9.77;;
44746;SDS011;30472;49.490;10.972;2023-09-12T08:39:14;14.10;;;9.55;;
44746;SDS011;30472;49.490;10.972;2023-09-12T08:41:44;11.80;;;9.52;;
44746;SDS011;30472;49.490;10.972;2023-09-12T08:44:12;21.75;;;9.55;;
44746;SDS011;30472;49.490;10.972;2023-09-12T08:46:41;11.65;;;10.40;;
44746;SDS011;30472;49.490;10.972;2023-09-12T08:49:07;12.20;;;9.40;;
44746;SDS011;30472;49.490;10.972;2023-09-12T08:51:34;13.13;;;9.70;;
44746;SDS011;30472;49.490;10.972;2023-09-12T08:54:00;13.50;;;8.98;;
44746;SDS011;30472;49.490;10.972;2023-09-12T08:56:29;14.95;;;9.50;;
44746;SDS011;30472;49.490;10.972;2023-09-12T08:58:56;11.00;;;9.43;;
44746;SDS011;30472;49.490;10.972;2023-09-12T09:01:22;13.25;;;9.02;;
44746;SDS011;30472;49.490;10.972;2023-09-12T09:03:52;10.77;;;9.00;;
44746;SDS011;30472;49.490;10.972;2023-09-12T09:06:18;13.43;;;9.05;;
44746;SDS011;30472;49.490;10.972;2023-09-12T09:08:46;11.18;;;8.88;;
44746;SDS011;30472;49.490;10.972;2023-09-12T09:11:14;10.40;;;8.32;;
44746;SDS011;30472;49.490;10.972;2023-09-12T09:13:39;15.07;;;8.38;;
44746;SDS011;30472;49.490;10.972;2023-09-12T09:21:20;15.75;;;9.55;;
44746;SDS011;30472;49.490;10.972;2023-09-12T09:23:50;14.05;;;7.97;;
44746;SDS011;30472;49.490;10.972;2023-09-12T09:26:19;13.40;;;8.70;;
44746;SDS011;30472;49.490;10.972;2023-09-12T09:29:01;10.68;;;8.82;;
44746;SDS011;30472;49.490;10.972;2023-09-12T09:31:31;15.48;;;8.57;;
44746;SDS011;30472;49.490;10.972;2023-09-12T09:33:58;13.82;;;8.85;;
44746;SDS011;30472;49.490;10.972;2023-09-12T09:36:24;10.98;;;8.55;;
44746;SDS011;30472;49.490;10.972;2023-09-12T09:38:51;11.10;;;8.45;;
44746;SDS011;30472;49.490;10.972;2023-09-12T09:41:21;12.82;;;8.15;;
44746;SDS011;30472;49.490;10.972;2023-09-12T09:43:50;11.82;;;8.27;;
44746;SDS011;30472;49.490;10.972;2023-09-12T09:46:16;10.52;;;7.50;;
44746;SDS011;30472;49.490;10.972;2023-09-12T09:48:49;13.32;;;7.20;;
44746;SDS011;30472;49.490;10.972;2023-09-12T09:51:16;13.18;;;7.68;;
44746;SDS011;30472;49.490;10.972;2023-09-12T09:53:42;11.32;;;6.82;;
44746;SDS011;30472;49.490;10.972;2023-09-12T09:56:12;12.05;;;7.50;;
44746;SDS011;30472;49.490;10.972;2023-09-12T09:58:52;12.30;;;7.28;;
44746;SDS011;30472;49.490;10.972;2023-09-12T10:01:21;12.13;;;7.35;;
44746;SDS011;30472;49.490;10.972;2023-09-12T10:03:49;13.48;;;7.65;;
44746;SDS011;30472;49.490;10.972;2023-09-12T10:06:16;9.20;;;7.63;;
44746;SDS011;30472;49.490;10.972;2023-09-12T10:08:44;7.57;;;6.75;;
44746;SDS011;30472;49.490;10.972;2023-09-12T10:11:14;9.57;;;7.28;;
44746;SDS011;30472;49.490;10.972;2023-09-12T10:13:46;9.05;;;7.57;;
44746;SDS011;30472;49.490;10.972;2023-09-12T10:16:22;11.15;;;7.80;;
44746;SDS011;30472;49.490;10.972;2023-09-12T10:19:07;10.82;;;8.55;;
44746;SDS011;30472;49.490;10.972;2023-09-12T10:21:50;12.98;;;8.20;;
44746;SDS011;30472;49.490;10.972;2023-09-12T10:24:23;13.18;;;7.50;;
44746;SDS011;30472;49.490;10.972;2023-09-12T10:26:52;12.18;;;7.40;;
44746;SDS011;30472;49.490;10.972;2023-09-12T10:29:20;15.70;;;8.02;;
44746;SDS011;30472;49.490;10.972;2023-09-12T10:31:47;11.98;;;7.72;;
44746;SDS011;30472;49.490;10.972;2023-09-12T10:34:14;11.95;;;7.60;;
44746;SDS011;30472;49.490;10.972;2023-09-12T10:36:41;11.43;;;7.43;;
44746;SDS011;30472;49.490;10.972;2023-09-12T10:39:07;11.95;;;8.15;;
44746;SDS011;30472;49.490;10.972;2023-09-12T10:41:40;9.55;;;7.32;;
44746;SDS011;30472;49.490;10.972;2023-09-12T10:44:12;11.05;;;8.77;;
44746;SDS011;30472;49.490;10.972;2023-09-12T10:46:43;13.85;;;8.63;;
44746;SDS011;30472;49.490;10.972;2023-09-12T10:49:11;15.18;;;8.85;;
44746;SDS011;30472;49.490;10.972;2023-09-12T10:51:38;9.73;;;7.95;;
44746;SDS011;30472;49.490;10.972;2023-09-12T10:54:06;10.48;;;7.85;;
44746;SDS011;30472;49.490;10.972;2023-09-12T10:56:33;8.95;;;8.05;;
44746;SDS011;30472;49.490;10.972;2023-09-12T11:01:35;12.38;;;8.13;;
44746;SDS011;30472;49.490;10.972;2023-09-12T11:06:43;10.32;;;7.72;;
44746;SDS011;30472;49.490;10.972;2023-09-12T11:09:25;12.82;;;7.78;;
44746;SDS011;30472;49.490;10.972;2023-09-12T11:14:26;10.40;;;7.95;;
44746;SDS011;30472;49.490;10.972;2023-09-12T11:19:48;9.38;;;7.93;;
44746;SDS011;30472;49.490;10.972;2023-09-12T11:22:29;13.13;;;8.20;;
44746;SDS011;30472;49.490;10.972;2023-09-12T11:24:57;9.63;;;7.72;;
44746;SDS011;30472;49.490;10.972;2023-09-12T11:27:31;10.52;;;7.97;;
44746;SDS011;30472;49.490;10.972;2023-09-12T11:30:08;9.88;;;7.43;;
44746;SDS011;30472;49.490;10.972;2023-09-12T11:32:35;12.90;;;7.97;;
44746;SDS011;30472;49.490;10.972;2023-09-12T11:35:08;10.55;;;7.93;;
44746;SDS011;30472;49.490;10.972;2023-09-12T11:37:35;10.30;;;7.38;;
44746;SDS011;30472;49.490;10.972;2023-09-12T11:42:39;13.20;;;7.45;;
44746;SDS011;30472;49.490;10.972;2023-09-12T11:45:08;11.02;;;7.90;;
44746;SDS011;30472;49.490;10.972;2023-09-12T11:47:39;12.27;;;7.25;;
44746;SDS011;30472;49.490;10.972;2023-09-12T11:50:05;10.82;;;7.80;;
44746;SDS011;30472;49.490;10.972;2023-09-12T11:52:35;13.52;;;8.70;;
44746;SDS011;30472;49.490;10.972;2023-09-12T11:55:02;10.57;;;7.60;;
44746;SDS011;30472;49.490;10.972;2023-09-12T11:57:28;9.38;;;7.20;;
44746;SDS011;30472;49.490;10.972;2023-09-12T11:59:55;11.15;;;7.57;;
44746;SDS011;30472;49.490;10.972;2023-09-12T12:02:21;8.43;;;7.63;;
44746;SDS011;30472;49.490;10.972;2023-09-12T12:04:47;11.95;;;8.07;;
44746;SDS011;30472;49.490;10.972;2023-09-12T12:07:13;11.98;;;7.20;;
44746;SDS011;30472;49.490;10.972;2023-09-12T12:09:39;13.60;;;8.00;;
44746;SDS011;30472;49.490;10.972;2023-09-12T12:12:11;10.10;;;7.28;;
44746;SDS011;30472;49.490;10.972;2023-09-12T12:14:38;10.70;;;7.88;;
44746;SDS011;30472;49.490;10.972;2023-09-12T12:17:08;9.82;;;7.15;;
44746;SDS011;30472;49.490;10.972;2023-09-12T12:19:34;7.47;;;6.78;;
44746;SDS011;30472;49.490;10.972;2023-09-12T12:22:02;9.73;;;7.05;;
44746;SDS011;30472;49.490;10.972;2023-09-12T12:24:36;12.48;;;7.88;;
44746;SDS011;30472;49.490;10.972;2023-09-12T12:27:06;7.88;;;7.10;;
44746;SDS011;30472;49.490;10.972;2023-09-12T12:29:33;9.88;;;7.30;;
44746;SDS011;30472;49.490;10.972;2023-09-12T12:32:00;10.63;;;7.63;;
44746;SDS011;30472;49.490;10.972;2023-09-12T12:34:26;9.52;;;7.35;;
44746;SDS011;30472;49.490;10.972;2023-09-12T12:36:53;9.18;;;6.90;;
44746;SDS011;30472;49.490;10.972;2023-09-12T12:39:20;9.55;;;7.50;;
44746;SDS011;30472;49.490;10.972;2023-09-12T12:41:47;11.05;;;6.60;;
44746;SDS011;30472;49.490;10.972;2023-09-12T12:44:13;7.72;;;7.03;;
44746;SDS011;30472;49.490;10.972;2023-09-12T12:46:53;11.02;;;6.68;;
44746;SDS011;30472;49.490;10.972;2023-09-12T12:49:19;11.95;;;6.80;;
44746;SDS011;30472;49.490;10.972;2023-09-12T12:51:46;8.88;;;7.07;;
44746;SDS011;30472;49.490;10.972;2023-09-12T12:54:14;11.48;;;7.20;;
44746;SDS011;30472;49.490;10.972;2023-09-12T12:56:40;9.13;;;7.20;;
44746;SDS011;30472;49.490;10.972;2023-09-12T12:59:08;9.05;;;7.10;;
44746;SDS011;30472;49.490;10.972;2023-09-12T13:01:37;8.52;;;6.65;;
44746;SDS011;30472;49.490;10.972;2023-09-12T13:04:07;7.43;;;6.20;;
44746;SDS011;30472;49.490;10.972;2023-09-12T13:06:33;9.45;;;6.50;;
44746;SDS011;30472;49.490;10.972;2023-09-12T13:09:03;10.63;;;6.13;;
44746;SDS011;30472;49.490;10.972;2023-09-12T13:11:30;10.95;;;6.47;;
44746;SDS011;30472;49.490;10.972;2023-09-12T13:14:00;14.43;;;7.00;;
44746;SDS011;30472;49.490;10.972;2023-09-12T13:16:27;10.63;;;7.00;;
44746;SDS011;30472;49.490;10.972;2023-09-12T13:18:54;7.47;;;6.05;;
44746;SDS011;30472;49.490;10.972;2023-09-12T13:21:19;10.18;;;7.10;;
44746;SDS011;30472;49.490;10.972;2023-09-12T13:23:45;8.65;;;6.10;;
44746;SDS011;30472;49.490;10.972;2023-09-12T13:26:10;10.25;;;7.25;;
44746;SDS011;30472;49.490;10.972;2023-09-12T13:28:36;9.88;;;6.38;;
44746;SDS011;30472;49.490;10.972;2023-09-12T13:31:02;9.23;;;6.40;;
44746;SDS011;30472;49.490;10.972;2023-09-12T13:33:28;11.43;;;6.88;;
44746;SDS011;30472;49.490;10.972;2023-09-12T13:35:54;13.48;;;6.50;;
44746;SDS011;30472;49.490;10.972;2023-09-12T13:38:19;8.38;;;6.03;;
44746;SDS011;30472;49.490;10.972;2023-09-12T13:40:47;8.73;;;7.07;;
44746;SDS011;30472;49.490;10.972;2023-09-12T13:43:12;7.32;;;6.45;;
44746;SDS011;30472;49.490;10.972;2023-09-12T13:45:40;10.15;;;6.30;;
44746;SDS011;30472;49.490;10.972;2023-09-12T13:48:06;8.52;;;6.60;;
44746;SDS011;30472;49.490;10.972;2023-09-12T13:50:33;8.75;;;6.57;;
44746;SDS011;30472;49.490;10.972;2023-09-12T13:52:59;13.55;;;6.93;;
44746;SDS011;30472;49.490;10.972;2023-09-12T13:55:28;8.15;;;5.68;;
44746;SDS011;30472;49.490;10.972;2023-09-12T13:57:55;7.97;;;6.20;;
44746;SDS011;30472;49.490;10.972;2023-09-12T14:00:20;18.48;;;7.05;;
44746;SDS011;30472;49.490;10.972;2023-09-12T14:02:46;10.07;;;6.10;;
44746;SDS011;30472;49.490;10.972;2023-09-12T14:05:12;9.02;;;5.97;;
44746;SDS011;30472;49.490;10.972;2023-09-12T14:07:38;10.75;;;6.07;;
44746;SDS011;30472;49.490;10.972;2023-09-12T14:10:06;11.90;;;6.38;;
44746;SDS011;30472;49.490;10.972;2023-09-12T14:12:32;9.40;;;6.15;;
44746;SDS011;30472;49.490;10.972;2023-09-12T14:14:57;14.52;;;6.15;;
44746;SDS011;30472;49.490;10.972;2023-09-12T14:17:23;10.75;;;6.38;;
44746;SDS011;30472;49.490;10.972;2023-09-12T14:19:48;9.65;;;6.82;;
44746;SDS011;30472;49.490;10.972;2023-09-12T14:22:14;8.93;;;7.05;;
44746;SDS011;30472;49.490;10.972;2023-09-12T14:24:40;10.90;;;6.55;;
44746;SDS011;30472;49.490;10.972;2023-09-12T14:27:06;12.35;;;7.18;;
44746;SDS011;30472;49.490;10.972;2023-09-12T14:29:31;11.48;;;6.85;;
44746;SDS011;30472;49.490;10.972;2023-09-12T14:31:57;7.60;;;6.28;;
44746;SDS011;30472;49.490;10.972;2023-09-12T14:34:28;7.40;;;6.43;;
44746;SDS011;30472;49.490;10.972;2023-09-12T14:36:56;11.18;;;6.60;;